Lindsay, Oklahoma
Current Conditions -  °F | °C
As of 8:55 AM on Monday 22 Dec 2014 (Local Time) from KPVJ Reporting Station
Clear Clear  
Wind Chill: 47°   Ceiling: Unl
Heat Index: 47°   Visibility: 10mi
Dew Point: 45°   Wind: 0mph
Humidity: 93%   Direction: NA
Pressure: 29.57"   Gusts: NA
Location:  34.83°N, 97.6°W
Report Text: KPVJ 221455Z AUTO 00000KT 10SM CLR 08/07 A2957 RMK AO2 T00820071
Loading
Personal Weather Stations






























Interactive Weather Map New forecast layout! Learn more

10-Day Weather Forecast

Advertisements
Track Severe Weather on mobile